Coburg, Oregon
Current Conditions -  °F | °C
As of 7:54 PM on Thursday 18 Dec 2014 (Local Time) from KEUG Reporting Station
Overcast Overcast  
Wind Chill: 51°   Ceiling: 5000
Heat Index: 51°   Visibility: 10mi
Dew Point: 45°   Wind: 3mph
Humidity: 80%   Direction: 170°S
Pressure: 29.82"   Gusts: NA
Location:  44.1549°N, 123.062°W
Report Text: KEUG 190354Z 17003KT 10SM OVC050 11/07 A2982 RMK AO2 SLP099 T01060072
Loading
Personal Weather Stations






























Interactive Weather Map New forecast layout! Learn more

10-Day Weather Forecast

Advertisements
Track Severe Weather on mobile